sensor_id;sensor_type;location;lat;lon;timestamp;P1;durP1;ratioP1;P2;durP2;ratioP2
5277;SDS011;2662;51.194;6.614;2024-03-08T00:02:15;10.43;;;5.03;;
5277;SDS011;2662;51.194;6.614;2024-03-08T00:04:51;9.60;;;5.77;;
5277;SDS011;2662;51.194;6.614;2024-03-08T00:07:18;9.87;;;5.10;;
5277;SDS011;2662;51.194;6.614;2024-03-08T00:09:47;10.90;;;5.63;;
5277;SDS011;2662;51.194;6.614;2024-03-08T00:12:14;12.30;;;5.63;;
5277;SDS011;2662;51.194;6.614;2024-03-08T00:14:41;7.90;;;4.93;;
5277;SDS011;2662;51.194;6.614;2024-03-08T00:17:07;11.20;;;5.60;;
5277;SDS011;2662;51.194;6.614;2024-03-08T00:19:38;9.23;;;5.20;;
5277;SDS011;2662;51.194;6.614;2024-03-08T00:22:08;11.10;;;5.10;;
5277;SDS011;2662;51.194;6.614;2024-03-08T00:24:35;12.20;;;5.63;;
5277;SDS011;2662;51.194;6.614;2024-03-08T00:27:02;13.10;;;5.47;;
5277;SDS011;2662;51.194;6.614;2024-03-08T00:29:31;20.07;;;5.97;;
5277;SDS011;2662;51.194;6.614;2024-03-08T00:31:58;8.80;;;4.63;;
5277;SDS011;2662;51.194;6.614;2024-03-08T00:34:25;9.97;;;5.00;;
5277;SDS011;2662;51.194;6.614;2024-03-08T00:36:54;9.90;;;5.63;;
5277;SDS011;2662;51.194;6.614;2024-03-08T00:39:23;9.93;;;4.93;;
5277;SDS011;2662;51.194;6.614;2024-03-08T00:41:50;11.23;;;5.67;;
5277;SDS011;2662;51.194;6.614;2024-03-08T00:44:19;8.13;;;4.60;;
5277;SDS011;2662;51.194;6.614;2024-03-08T00:46:46;11.73;;;5.90;;
5277;SDS011;2662;51.194;6.614;2024-03-08T00:49:13;9.50;;;5.00;;
5277;SDS011;2662;51.194;6.614;2024-03-08T00:51:40;10.87;;;4.80;;
5277;SDS011;2662;51.194;6.614;2024-03-08T00:54:08;11.50;;;5.40;;
5277;SDS011;2662;51.194;6.614;2024-03-08T00:56:37;10.93;;;5.80;;
5277;SDS011;2662;51.194;6.614;2024-03-08T00:59:04;11.40;;;5.03;;
5277;SDS011;2662;51.194;6.614;2024-03-08T01:01:32;8.80;;;4.80;;
5277;SDS011;2662;51.194;6.614;2024-03-08T01:03:59;11.47;;;5.00;;
5277;SDS011;2662;51.194;6.614;2024-03-08T01:06:27;7.90;;;5.17;;
5277;SDS011;2662;51.194;6.614;2024-03-08T01:08:53;11.83;;;5.47;;
5277;SDS011;2662;51.194;6.614;2024-03-08T01:11:23;10.13;;;5.20;;
5277;SDS011;2662;51.194;6.614;2024-03-08T01:13:51;13.27;;;5.23;;
5277;SDS011;2662;51.194;6.614;2024-03-08T01:16:18;10.57;;;5.40;;
5277;SDS011;2662;51.194;6.614;2024-03-08T01:18:48;11.03;;;5.80;;
5277;SDS011;2662;51.194;6.614;2024-03-08T01:21:16;10.93;;;5.53;;
5277;SDS011;2662;51.194;6.614;2024-03-08T01:23:43;20.20;;;6.70;;
5277;SDS011;2662;51.194;6.614;2024-03-08T01:26:10;10.90;;;5.20;;
5277;SDS011;2662;51.194;6.614;2024-03-08T01:28:36;14.50;;;5.50;;
5277;SDS011;2662;51.194;6.614;2024-03-08T01:31:05;12.37;;;5.13;;
5277;SDS011;2662;51.194;6.614;2024-03-08T01:33:32;10.03;;;5.30;;
5277;SDS011;2662;51.194;6.614;2024-03-08T01:35:58;11.93;;;5.67;;
5277;SDS011;2662;51.194;6.614;2024-03-08T01:38:25;11.30;;;5.07;;
5277;SDS011;2662;51.194;6.614;2024-03-08T01:40:56;8.13;;;4.63;;
5277;SDS011;2662;51.194;6.614;2024-03-08T01:43:24;11.30;;;5.53;;
5277;SDS011;2662;51.194;6.614;2024-03-08T01:45:53;7.17;;;5.03;;
5277;SDS011;2662;51.194;6.614;2024-03-08T01:48:25;9.47;;;4.87;;
5277;SDS011;2662;51.194;6.614;2024-03-08T01:50:52;8.33;;;4.73;;
5277;SDS011;2662;51.194;6.614;2024-03-08T01:53:21;13.77;;;5.93;;
5277;SDS011;2662;51.194;6.614;2024-03-08T01:55:50;12.40;;;5.47;;
5277;SDS011;2662;51.194;6.614;2024-03-08T01:58:20;11.40;;;5.00;;
5277;SDS011;2662;51.194;6.614;2024-03-08T02:00:51;10.67;;;5.33;;
5277;SDS011;2662;51.194;6.614;2024-03-08T02:03:19;8.80;;;4.57;;
5277;SDS011;2662;51.194;6.614;2024-03-08T02:05:48;11.80;;;5.83;;
5277;SDS011;2662;51.194;6.614;2024-03-08T02:08:16;11.77;;;5.30;;
5277;SDS011;2662;51.194;6.614;2024-03-08T02:10:44;10.60;;;5.80;;
5277;SDS011;2662;51.194;6.614;2024-03-08T02:13:15;9.90;;;4.80;;
5277;SDS011;2662;51.194;6.614;2024-03-08T02:15:49;15.20;;;6.43;;
5277;SDS011;2662;51.194;6.614;2024-03-08T02:18:17;9.83;;;4.90;;
5277;SDS011;2662;51.194;6.614;2024-03-08T02:20:45;12.03;;;5.73;;
5277;SDS011;2662;51.194;6.614;2024-03-08T02:23:13;18.63;;;6.30;;
5277;SDS011;2662;51.194;6.614;2024-03-08T02:25:40;9.73;;;5.00;;
5277;SDS011;2662;51.194;6.614;2024-03-08T02:28:09;12.17;;;5.70;;
5277;SDS011;2662;51.194;6.614;2024-03-08T02:30:37;11.70;;;5.40;;
5277;SDS011;2662;51.194;6.614;2024-03-08T02:33:05;11.20;;;5.57;;
5277;SDS011;2662;51.194;6.614;2024-03-08T02:35:35;10.40;;;5.30;;
5277;SDS011;2662;51.194;6.614;2024-03-08T02:38:03;15.13;;;5.73;;
5277;SDS011;2662;51.194;6.614;2024-03-08T02:40:31;14.83;;;5.40;;
5277;SDS011;2662;51.194;6.614;2024-03-08T02:43:01;7.97;;;4.30;;
5277;SDS011;2662;51.194;6.614;2024-03-08T02:45:30;10.67;;;5.30;;
5277;SDS011;2662;51.194;6.614;2024-03-08T02:47:57;11.57;;;4.83;;
5277;SDS011;2662;51.194;6.614;2024-03-08T02:50:24;11.33;;;4.97;;
5277;SDS011;2662;51.194;6.614;2024-03-08T02:52:51;12.60;;;6.20;;
5277;SDS011;2662;51.194;6.614;2024-03-08T02:55:20;10.13;;;5.20;;
5277;SDS011;2662;51.194;6.614;2024-03-08T02:57:47;16.13;;;5.13;;
5277;SDS011;2662;51.194;6.614;2024-03-08T03:00:14;12.40;;;5.90;;
5277;SDS011;2662;51.194;6.614;2024-03-08T03:02:44;10.70;;;5.20;;
5277;SDS011;2662;51.194;6.614;2024-03-08T03:05:11;14.60;;;6.57;;
5277;SDS011;2662;51.194;6.614;2024-03-08T03:07:39;13.80;;;5.43;;
5277;SDS011;2662;51.194;6.614;2024-03-08T03:10:08;10.50;;;5.20;;
5277;SDS011;2662;51.194;6.614;2024-03-08T03:12:36;9.27;;;5.50;;
5277;SDS011;2662;51.194;6.614;2024-03-08T03:15:04;13.83;;;6.77;;
5277;SDS011;2662;51.194;6.614;2024-03-08T03:17:32;12.20;;;5.40;;
5277;SDS011;2662;51.194;6.614;2024-03-08T03:19:59;17.00;;;5.53;;
5277;SDS011;2662;51.194;6.614;2024-03-08T03:22:34;13.57;;;6.13;;
5277;SDS011;2662;51.194;6.614;2024-03-08T03:25:01;10.57;;;5.80;;
5277;SDS011;2662;51.194;6.614;2024-03-08T03:27:29;11.80;;;5.27;;
5277;SDS011;2662;51.194;6.614;2024-03-08T03:29:58;15.20;;;6.40;;
5277;SDS011;2662;51.194;6.614;2024-03-08T03:32:45;13.50;;;5.47;;
5277;SDS011;2662;51.194;6.614;2024-03-08T03:35:14;13.87;;;5.30;;
5277;SDS011;2662;51.194;6.614;2024-03-08T03:37:42;9.60;;;5.00;;
5277;SDS011;2662;51.194;6.614;2024-03-08T03:40:11;9.67;;;5.63;;
5277;SDS011;2662;51.194;6.614;2024-03-08T03:42:39;8.50;;;4.73;;
5277;SDS011;2662;51.194;6.614;2024-03-08T03:45:08;13.30;;;5.77;;
5277;SDS011;2662;51.194;6.614;2024-03-08T03:47:35;12.93;;;6.47;;
5277;SDS011;2662;51.194;6.614;2024-03-08T03:50:04;12.20;;;6.23;;
5277;SDS011;2662;51.194;6.614;2024-03-08T03:52:34;9.07;;;4.63;;
5277;SDS011;2662;51.194;6.614;2024-03-08T03:55:01;10.70;;;5.20;;
5277;SDS011;2662;51.194;6.614;2024-03-08T03:57:29;10.33;;;5.13;;
5277;SDS011;2662;51.194;6.614;2024-03-08T03:59:56;13.07;;;5.97;;
5277;SDS011;2662;51.194;6.614;2024-03-08T04:02:25;10.67;;;5.10;;
5277;SDS011;2662;51.194;6.614;2024-03-08T04:04:52;8.77;;;5.23;;
5277;SDS011;2662;51.194;6.614;2024-03-08T04:07:19;16.00;;;5.53;;
5277;SDS011;2662;51.194;6.614;2024-03-08T04:09:46;12.43;;;5.20;;
5277;SDS011;2662;51.194;6.614;2024-03-08T04:12:14;11.53;;;4.70;;
5277;SDS011;2662;51.194;6.614;2024-03-08T04:14:42;13.47;;;5.40;;
5277;SDS011;2662;51.194;6.614;2024-03-08T04:17:09;16.03;;;6.40;;
5277;SDS011;2662;51.194;6.614;2024-03-08T04:19:39;10.23;;;5.27;;
5277;SDS011;2662;51.194;6.614;2024-03-08T04:22:06;10.33;;;5.20;;
5277;SDS011;2662;51.194;6.614;2024-03-08T04:24:33;10.77;;;5.37;;
5277;SDS011;2662;51.194;6.614;2024-03-08T04:27:00;13.13;;;5.60;;
5277;SDS011;2662;51.194;6.614;2024-03-08T04:29:27;15.67;;;5.77;;
5277;SDS011;2662;51.194;6.614;2024-03-08T04:31:54;14.60;;;5.50;;
5277;SDS011;2662;51.194;6.614;2024-03-08T04:34:21;11.23;;;5.17;;
5277;SDS011;2662;51.194;6.614;2024-03-08T04:36:50;15.63;;;5.37;;
5277;SDS011;2662;51.194;6.614;2024-03-08T04:39:18;10.93;;;5.70;;
5277;SDS011;2662;51.194;6.614;2024-03-08T04:41:46;10.17;;;5.20;;
5277;SDS011;2662;51.194;6.614;2024-03-08T04:44:13;17.40;;;6.17;;
5277;SDS011;2662;51.194;6.614;2024-03-08T04:46:42;12.03;;;5.70;;
5277;SDS011;2662;51.194;6.614;2024-03-08T04:49:09;13.00;;;6.43;;
5277;SDS011;2662;51.194;6.614;2024-03-08T04:51:36;10.17;;;5.43;;
5277;SDS011;2662;51.194;6.614;2024-03-08T04:54:05;11.40;;;5.33;;
5277;SDS011;2662;51.194;6.614;2024-03-08T04:56:31;13.37;;;5.70;;
5277;SDS011;2662;51.194;6.614;2024-03-08T04:58:58;10.33;;;5.43;;
5277;SDS011;2662;51.194;6.614;2024-03-08T05:01:25;11.50;;;5.40;;
5277;SDS011;2662;51.194;6.614;2024-03-08T05:03:52;13.07;;;5.40;;
5277;SDS011;2662;51.194;6.614;2024-03-08T05:06:20;13.93;;;5.60;;
5277;SDS011;2662;51.194;6.614;2024-03-08T05:08:48;8.57;;;4.93;;
5277;SDS011;2662;51.194;6.614;2024-03-08T05:11:17;14.17;;;4.90;;
5277;SDS011;2662;51.194;6.614;2024-03-08T05:13:44;10.90;;;5.40;;
5277;SDS011;2662;51.194;6.614;2024-03-08T05:16:12;14.03;;;5.93;;
5277;SDS011;2662;51.194;6.614;2024-03-08T05:18:40;12.17;;;5.43;;
5277;SDS011;2662;51.194;6.614;2024-03-08T05:21:08;11.20;;;5.77;;
5277;SDS011;2662;51.194;6.614;2024-03-08T05:23:35;10.00;;;5.20;;
5277;SDS011;2662;51.194;6.614;2024-03-08T05:26:03;12.03;;;6.43;;
5277;SDS011;2662;51.194;6.614;2024-03-08T05:28:32;9.97;;;5.13;;
5277;SDS011;2662;51.194;6.614;2024-03-08T05:30:58;16.40;;;5.93;;
5277;SDS011;2662;51.194;6.614;2024-03-08T05:33:26;16.00;;;5.60;;
5277;SDS011;2662;51.194;6.614;2024-03-08T05:35:53;13.63;;;5.63;;
5277;SDS011;2662;51.194;6.614;2024-03-08T05:38:20;10.13;;;5.43;;
5277;SDS011;2662;51.194;6.614;2024-03-08T05:40:47;12.87;;;5.27;;
5277;SDS011;2662;51.194;6.614;2024-03-08T05:43:16;15.90;;;6.20;;
5277;SDS011;2662;51.194;6.614;2024-03-08T05:45:45;13.27;;;6.10;;
5277;SDS011;2662;51.194;6.614;2024-03-08T05:48:13;11.03;;;5.00;;
5277;SDS011;2662;51.194;6.614;2024-03-08T05:50:40;15.10;;;5.83;;
5277;SDS011;2662;51.194;6.614;2024-03-08T05:53:09;16.23;;;5.57;;
5277;SDS011;2662;51.194;6.614;2024-03-08T05:55:36;9.10;;;4.70;;
5277;SDS011;2662;51.194;6.614;2024-03-08T05:58:04;13.73;;;6.17;;
5277;SDS011;2662;51.194;6.614;2024-03-08T06:00:33;10.43;;;5.10;;
5277;SDS011;2662;51.194;6.614;2024-03-08T06:03:02;11.90;;;5.43;;
5277;SDS011;2662;51.194;6.614;2024-03-08T06:05:31;13.43;;;5.60;;
5277;SDS011;2662;51.194;6.614;2024-03-08T06:07:58;10.30;;;5.40;;
5277;SDS011;2662;51.194;6.614;2024-03-08T06:10:25;11.93;;;5.33;;
5277;SDS011;2662;51.194;6.614;2024-03-08T06:12:52;15.43;;;5.60;;
5277;SDS011;2662;51.194;6.614;2024-03-08T06:15:19;9.97;;;5.57;;
5277;SDS011;2662;51.194;6.614;2024-03-08T06:17:47;10.80;;;5.90;;
5277;SDS011;2662;51.194;6.614;2024-03-08T06:20:15;10.07;;;5.43;;
5277;SDS011;2662;51.194;6.614;2024-03-08T06:22:42;11.47;;;5.47;;
5277;SDS011;2662;51.194;6.614;2024-03-08T06:25:10;10.50;;;4.83;;
5277;SDS011;2662;51.194;6.614;2024-03-08T06:27:39;12.80;;;5.83;;
5277;SDS011;2662;51.194;6.614;2024-03-08T06:30:07;13.37;;;5.73;;
5277;SDS011;2662;51.194;6.614;2024-03-08T06:32:37;12.90;;;5.40;;
5277;SDS011;2662;51.194;6.614;2024-03-08T06:35:04;16.17;;;6.27;;
5277;SDS011;2662;51.194;6.614;2024-03-08T06:37:33;11.63;;;4.87;;
5277;SDS011;2662;51.194;6.614;2024-03-08T06:40:00;12.70;;;4.97;;
5277;SDS011;2662;51.194;6.614;2024-03-08T06:42:29;13.17;;;6.13;;
5277;SDS011;2662;51.194;6.614;2024-03-08T06:44:58;11.70;;;6.23;;
5277;SDS011;2662;51.194;6.614;2024-03-08T06:47:30;12.57;;;6.00;;
5277;SDS011;2662;51.194;6.614;2024-03-08T06:49:58;15.77;;;6.77;;
5277;SDS011;2662;51.194;6.614;2024-03-08T06:52:25;10.30;;;5.87;;
5277;SDS011;2662;51.194;6.614;2024-03-08T06:54:53;13.63;;;6.43;;
5277;SDS011;2662;51.194;6.614;2024-03-08T06:57:22;11.90;;;5.87;;
5277;SDS011;2662;51.194;6.614;2024-03-08T06:59:49;11.17;;;6.40;;
5277;SDS011;2662;51.194;6.614;2024-03-08T07:02:17;12.33;;;6.33;;
5277;SDS011;2662;51.194;6.614;2024-03-08T07:04:44;15.17;;;6.87;;
5277;SDS011;2662;51.194;6.614;2024-03-08T07:07:12;13.60;;;6.10;;
5277;SDS011;2662;51.194;6.614;2024-03-08T07:09:39;12.97;;;6.10;;
5277;SDS011;2662;51.194;6.614;2024-03-08T07:12:09;14.80;;;6.83;;
5277;SDS011;2662;51.194;6.614;2024-03-08T07:14:38;13.90;;;6.90;;
5277;SDS011;2662;51.194;6.614;2024-03-08T07:17:06;18.60;;;7.60;;
5277;SDS011;2662;51.194;6.614;2024-03-08T07:19:34;15.30;;;6.70;;
5277;SDS011;2662;51.194;6.614;2024-03-08T07:22:03;22.30;;;7.53;;
5277;SDS011;2662;51.194;6.614;2024-03-08T07:24:33;18.20;;;7.60;;
5277;SDS011;2662;51.194;6.614;2024-03-08T07:27:17;19.10;;;7.40;;
5277;SDS011;2662;51.194;6.614;2024-03-08T07:29:46;16.13;;;7.40;;
5277;SDS011;2662;51.194;6.614;2024-03-08T07:32:15;16.90;;;7.80;;
5277;SDS011;2662;51.194;6.614;2024-03-08T07:34:46;16.73;;;7.47;;
5277;SDS011;2662;51.194;6.614;2024-03-08T07:37:16;13.80;;;6.93;;
5277;SDS011;2662;51.194;6.614;2024-03-08T07:39:44;16.07;;;7.80;;
5277;SDS011;2662;51.194;6.614;2024-03-08T07:42:11;15.63;;;6.90;;
5277;SDS011;2662;51.194;6.614;2024-03-08T07:44:39;17.30;;;7.40;;
5277;SDS011;2662;51.194;6.614;2024-03-08T07:47:07;14.30;;;6.97;;
5277;SDS011;2662;51.194;6.614;2024-03-08T07:49:34;19.97;;;8.50;;
5277;SDS011;2662;51.194;6.614;2024-03-08T07:52:02;20.20;;;7.60;;
5277;SDS011;2662;51.194;6.614;2024-03-08T07:54:33;13.43;;;6.90;;
5277;SDS011;2662;51.194;6.614;2024-03-08T07:57:00;15.17;;;6.60;;
5277;SDS011;2662;51.194;6.614;2024-03-08T07:59:28;13.17;;;6.87;;
5277;SDS011;2662;51.194;6.614;2024-03-08T08:01:57;15.60;;;7.23;;
5277;SDS011;2662;51.194;6.614;2024-03-08T08:04:24;12.27;;;6.70;;
5277;SDS011;2662;51.194;6.614;2024-03-08T08:06:52;16.70;;;7.77;;
5277;SDS011;2662;51.194;6.614;2024-03-08T08:09:21;16.87;;;7.53;;
5277;SDS011;2662;51.194;6.614;2024-03-08T08:11:53;16.17;;;7.70;;
5277;SDS011;2662;51.194;6.614;2024-03-08T08:14:21;13.60;;;7.60;;
5277;SDS011;2662;51.194;6.614;2024-03-08T08:16:48;17.30;;;7.50;;
5277;SDS011;2662;51.194;6.614;2024-03-08T08:19:19;18.00;;;7.50;;
5277;SDS011;2662;51.194;6.614;2024-03-08T08:21:46;17.93;;;7.67;;
5277;SDS011;2662;51.194;6.614;2024-03-08T08:24:13;16.40;;;7.67;;
5277;SDS011;2662;51.194;6.614;2024-03-08T08:26:41;13.73;;;6.63;;
5277;SDS011;2662;51.194;6.614;2024-03-08T08:29:09;14.10;;;6.60;;
5277;SDS011;2662;51.194;6.614;2024-03-08T08:31:36;16.17;;;7.43;;
5277;SDS011;2662;51.194;6.614;2024-03-08T08:34:05;16.10;;;8.00;;
5277;SDS011;2662;51.194;6.614;2024-03-08T08:36:33;16.33;;;7.20;;
5277;SDS011;2662;51.194;6.614;2024-03-08T08:39:02;19.27;;;7.47;;
5277;SDS011;2662;51.194;6.614;2024-03-08T08:41:30;15.80;;;6.97;;
5277;SDS011;2662;51.194;6.614;2024-03-08T08:43:57;14.40;;;6.23;;
5277;SDS011;2662;51.194;6.614;2024-03-08T08:46:24;13.67;;;7.27;;
5277;SDS011;2662;51.194;6.614;2024-03-08T08:48:51;10.13;;;5.93;;
5277;SDS011;2662;51.194;6.614;2024-03-08T08:51:18;18.17;;;7.47;;
5277;SDS011;2662;51.194;6.614;2024-03-08T08:53:47;12.93;;;6.60;;
5277;SDS011;2662;51.194;6.614;2024-03-08T08:56:16;14.37;;;7.30;;
5277;SDS011;2662;51.194;6.614;2024-03-08T08:58:44;12.20;;;6.43;;
5277;SDS011;2662;51.194;6.614;2024-03-08T09:01:11;14.87;;;6.17;;
5277;SDS011;2662;51.194;6.614;2024-03-08T09:03:39;11.83;;;6.67;;
5277;SDS011;2662;51.194;6.614;2024-03-08T09:06:07;13.70;;;6.13;;
5277;SDS011;2662;51.194;6.614;2024-03-08T09:08:35;11.90;;;6.10;;
5277;SDS011;2662;51.194;6.614;2024-03-08T09:11:04;13.60;;;6.17;;
5277;SDS011;2662;51.194;6.614;2024-03-08T09:13:34;11.50;;;5.90;;
5277;SDS011;2662;51.194;6.614;2024-03-08T09:16:03;12.33;;;6.43;;
5277;SDS011;2662;51.194;6.614;2024-03-08T09:18:31;14.03;;;7.40;;
5277;SDS011;2662;51.194;6.614;2024-03-08T09:20:58;11.90;;;5.80;;
5277;SDS011;2662;51.194;6.614;2024-03-08T09:23:26;13.70;;;6.70;;
5277;SDS011;2662;51.194;6.614;2024-03-08T09:25:55;10.57;;;5.97;;
5277;SDS011;2662;51.194;6.614;2024-03-08T09:28:24;11.60;;;5.83;;
5277;SDS011;2662;51.194;6.614;2024-03-08T09:30:52;12.97;;;6.20;;
5277;SDS011;2662;51.194;6.614;2024-03-08T09:33:19;14.80;;;6.10;;
5277;SDS011;2662;51.194;6.614;2024-03-08T09:35:47;14.47;;;5.30;;
5277;SDS011;2662;51.194;6.614;2024-03-08T09:38:16;12.47;;;5.63;;
5277;SDS011;2662;51.194;6.614;2024-03-08T09:40:47;11.67;;;5.97;;
5277;SDS011;2662;51.194;6.614;2024-03-08T09:43:14;14.57;;;5.70;;
5277;SDS011;2662;51.194;6.614;2024-03-08T09:45:42;13.00;;;6.10;;
5277;SDS011;2662;51.194;6.614;2024-03-08T09:48:11;13.57;;;6.13;;
5277;SDS011;2662;51.194;6.614;2024-03-08T09:50:40;13.00;;;5.60;;
5277;SDS011;2662;51.194;6.614;2024-03-08T09:53:07;17.20;;;6.47;;
5277;SDS011;2662;51.194;6.614;2024-03-08T09:55:35;14.13;;;5.90;;
5277;SDS011;2662;51.194;6.614;2024-03-08T09:58:05;12.93;;;6.13;;
5277;SDS011;2662;51.194;6.614;2024-03-08T10:00:51;14.00;;;5.47;;
5277;SDS011;2662;51.194;6.614;2024-03-08T10:03:19;10.17;;;5.83;;
5277;SDS011;2662;51.194;6.614;2024-03-08T10:05:47;11.17;;;5.57;;
5277;SDS011;2662;51.194;6.614;2024-03-08T10:08:14;16.00;;;6.00;;
5277;SDS011;2662;51.194;6.614;2024-03-08T10:10:41;12.47;;;6.40;;
5277;SDS011;2662;51.194;6.614;2024-03-08T10:13:09;11.20;;;5.60;;
5277;SDS011;2662;51.194;6.614;2024-03-08T10:15:37;11.07;;;5.73;;
5277;SDS011;2662;51.194;6.614;2024-03-08T10:18:07;11.20;;;5.43;;
5277;SDS011;2662;51.194;6.614;2024-03-08T10:20:35;10.80;;;5.10;;
5277;SDS011;2662;51.194;6.614;2024-03-08T10:23:02;11.30;;;5.93;;
5277;SDS011;2662;51.194;6.614;2024-03-08T10:25:30;14.47;;;6.27;;
5277;SDS011;2662;51.194;6.614;2024-03-08T10:27:57;13.00;;;5.60;;
5277;SDS011;2662;51.194;6.614;2024-03-08T10:30:24;15.67;;;5.93;;
5277;SDS011;2662;51.194;6.614;2024-03-08T10:32:52;9.53;;;5.27;;
5277;SDS011;2662;51.194;6.614;2024-03-08T10:35:22;10.53;;;5.93;;
5277;SDS011;2662;51.194;6.614;2024-03-08T10:37:50;11.80;;;5.90;;
5277;SDS011;2662;51.194;6.614;2024-03-08T10:40:24;7.37;;;4.37;;
5277;SDS011;2662;51.194;6.614;2024-03-08T10:42:52;8.40;;;4.77;;
5277;SDS011;2662;51.194;6.614;2024-03-08T10:45:23;8.37;;;4.57;;
5277;SDS011;2662;51.194;6.614;2024-03-08T10:48:01;5.60;;;4.37;;
5277;SDS011;2662;51.194;6.614;2024-03-08T10:50:36;11.83;;;5.80;;
5277;SDS011;2662;51.194;6.614;2024-03-08T10:53:05;8.10;;;4.70;;
5277;SDS011;2662;51.194;6.614;2024-03-08T10:55:32;8.70;;;4.97;;
5277;SDS011;2662;51.194;6.614;2024-03-08T10:58:00;10.30;;;5.87;;
5277;SDS011;2662;51.194;6.614;2024-03-08T11:00:26;8.00;;;4.40;;
5277;SDS011;2662;51.194;6.614;2024-03-08T11:02:55;8.03;;;4.40;;
5277;SDS011;2662;51.194;6.614;2024-03-08T11:05:32;10.10;;;5.43;;
5277;SDS011;2662;51.194;6.614;2024-03-08T11:08:06;9.77;;;4.80;;
5277;SDS011;2662;51.194;6.614;2024-03-08T11:10:47;10.83;;;4.60;;
5277;SDS011;2662;51.194;6.614;2024-03-08T11:13:32;10.07;;;4.70;;
5277;SDS011;2662;51.194;6.614;2024-03-08T11:16:00;8.50;;;5.00;;
5277;SDS011;2662;51.194;6.614;2024-03-08T11:18:31;6.20;;;4.07;;
5277;SDS011;2662;51.194;6.614;2024-03-08T11:21:03;7.77;;;4.37;;
5277;SDS011;2662;51.194;6.614;2024-03-08T11:23:32;10.37;;;4.43;;
5277;SDS011;2662;51.194;6.614;2024-03-08T11:25:59;10.10;;;5.13;;
5277;SDS011;2662;51.194;6.614;2024-03-08T11:28:31;12.27;;;4.43;;
5277;SDS011;2662;51.194;6.614;2024-03-08T11:33:53;9.23;;;4.67;;
5277;SDS011;2662;51.194;6.614;2024-03-08T11:36:23;8.90;;;4.80;;
5277;SDS011;2662;51.194;6.614;2024-03-08T11:38:51;15.60;;;4.57;;
5277;SDS011;2662;51.194;6.614;2024-03-08T11:41:21;8.40;;;4.63;;
5277;SDS011;2662;51.194;6.614;2024-03-08T11:43:52;5.67;;;3.90;;
5277;SDS011;2662;51.194;6.614;2024-03-08T11:46:30;9.27;;;4.70;;
5277;SDS011;2662;51.194;6.614;2024-03-08T11:48:59;8.90;;;4.93;;
5277;SDS011;2662;51.194;6.614;2024-03-08T11:51:29;10.20;;;4.80;;
5277;SDS011;2662;51.194;6.614;2024-03-08T11:53:57;9.27;;;4.27;;
5277;SDS011;2662;51.194;6.614;2024-03-08T11:56:30;12.30;;;4.90;;
5277;SDS011;2662;51.194;6.614;2024-03-08T11:58:59;11.50;;;5.10;;
5277;SDS011;2662;51.194;6.614;2024-03-08T12:01:26;6.53;;;3.80;;
5277;SDS011;2662;51.194;6.614;2024-03-08T12:03:53;7.80;;;4.53;;
5277;SDS011;2662;51.194;6.614;2024-03-08T12:06:24;6.43;;;4.00;;
5277;SDS011;2662;51.194;6.614;2024-03-08T12:08:55;8.40;;;4.20;;
5277;SDS011;2662;51.194;6.614;2024-03-08T12:11:22;7.63;;;4.50;;
5277;SDS011;2662;51.194;6.614;2024-03-08T12:13:49;9.23;;;4.20;;
5277;SDS011;2662;51.194;6.614;2024-03-08T12:16:17;9.93;;;4.37;;
5277;SDS011;2662;51.194;6.614;2024-03-08T12:18:44;6.70;;;3.90;;
5277;SDS011;2662;51.194;6.614;2024-03-08T12:21:13;12.33;;;5.30;;
5277;SDS011;2662;51.194;6.614;2024-03-08T12:23:45;7.57;;;3.97;;
5277;SDS011;2662;51.194;6.614;2024-03-08T12:26:17;8.17;;;4.37;;
5277;SDS011;2662;51.194;6.614;2024-03-08T12:28:51;7.87;;;4.67;;
5277;SDS011;2662;51.194;6.614;2024-03-08T12:31:18;8.27;;;4.00;;
5277;SDS011;2662;51.194;6.614;2024-03-08T12:33:49;10.33;;;4.47;;
5277;SDS011;2662;51.194;6.614;2024-03-08T12:36:17;9.27;;;4.43;;
5277;SDS011;2662;51.194;6.614;2024-03-08T12:38:48;10.70;;;5.17;;
5277;SDS011;2662;51.194;6.614;2024-03-08T12:41:17;6.83;;;3.97;;
5277;SDS011;2662;51.194;6.614;2024-03-08T12:43:45;12.57;;;5.20;;
5277;SDS011;2662;51.194;6.614;2024-03-08T12:46:13;9.37;;;4.07;;
5277;SDS011;2662;51.194;6.614;2024-03-08T12:48:40;9.03;;;4.80;;
5277;SDS011;2662;51.194;6.614;2024-03-08T12:51:12;6.70;;;3.90;;
5277;SDS011;2662;51.194;6.614;2024-03-08T12:53:40;9.07;;;4.60;;
5277;SDS011;2662;51.194;6.614;2024-03-08T12:56:09;8.83;;;4.80;;
5277;SDS011;2662;51.194;6.614;2024-03-08T12:58:38;9.60;;;4.37;;
5277;SDS011;2662;51.194;6.614;2024-03-08T13:01:05;8.90;;;5.20;;
5277;SDS011;2662;51.194;6.614;2024-03-08T13:03:33;8.23;;;4.27;;
5277;SDS011;2662;51.194;6.614;2024-03-08T13:06:00;8.60;;;4.30;;
5277;SDS011;2662;51.194;6.614;2024-03-08T13:08:33;11.07;;;5.37;;
5277;SDS011;2662;51.194;6.614;2024-03-08T13:11:01;10.80;;;4.77;;
5277;SDS011;2662;51.194;6.614;2024-03-08T13:13:28;9.57;;;4.30;;
5277;SDS011;2662;51.194;6.614;2024-03-08T13:15:59;8.23;;;4.20;;
5277;SDS011;2662;51.194;6.614;2024-03-08T13:18:26;7.00;;;4.27;;
5277;SDS011;2662;51.194;6.614;2024-03-08T13:20:54;6.13;;;4.20;;
5277;SDS011;2662;51.194;6.614;2024-03-08T13:23:22;10.93;;;4.70;;
5277;SDS011;2662;51.194;6.614;2024-03-08T13:25:49;7.63;;;4.20;;
5277;SDS011;2662;51.194;6.614;2024-03-08T13:28:16;7.57;;;4.10;;
5277;SDS011;2662;51.194;6.614;2024-03-08T13:30:48;7.23;;;4.30;;
5277;SDS011;2662;51.194;6.614;2024-03-08T13:33:17;10.50;;;4.30;;
5277;SDS011;2662;51.194;6.614;2024-03-08T13:35:46;8.30;;;4.33;;
5277;SDS011;2662;51.194;6.614;2024-03-08T13:38:13;8.27;;;4.97;;
5277;SDS011;2662;51.194;6.614;2024-03-08T13:40:40;10.67;;;4.00;;
5277;SDS011;2662;51.194;6.614;2024-03-08T13:43:07;9.83;;;4.60;;
5277;SDS011;2662;51.194;6.614;2024-03-08T13:45:34;8.60;;;4.47;;
5277;SDS011;2662;51.194;6.614;2024-03-08T13:48:03;7.37;;;4.50;;
5277;SDS011;2662;51.194;6.614;2024-03-08T13:50:33;10.53;;;4.70;;
5277;SDS011;2662;51.194;6.614;2024-03-08T13:53:00;6.80;;;4.00;;
5277;SDS011;2662;51.194;6.614;2024-03-08T13:55:27;6.10;;;3.50;;
5277;SDS011;2662;51.194;6.614;2024-03-08T13:57:53;9.10;;;4.80;;
5277;SDS011;2662;51.194;6.614;2024-03-08T14:00:24;8.87;;;4.00;;
5277;SDS011;2662;51.194;6.614;2024-03-08T14:02:58;9.70;;;4.30;;
5277;SDS011;2662;51.194;6.614;2024-03-08T14:05:25;6.47;;;4.40;;
5277;SDS011;2662;51.194;6.614;2024-03-08T14:07:53;8.57;;;4.63;;
5277;SDS011;2662;51.194;6.614;2024-03-08T14:10:20;8.83;;;4.50;;
5277;SDS011;2662;51.194;6.614;2024-03-08T14:12:48;8.47;;;4.37;;
5277;SDS011;2662;51.194;6.614;2024-03-08T14:15:16;8.03;;;4.00;;
5277;SDS011;2662;51.194;6.614;2024-03-08T14:17:43;6.70;;;4.17;;
5277;SDS011;2662;51.194;6.614;2024-03-08T14:20:11;7.30;;;3.70;;
5277;SDS011;2662;51.194;6.614;2024-03-08T14:22:39;8.70;;;4.60;;
5277;SDS011;2662;51.194;6.614;2024-03-08T14:25:08;6.90;;;3.90;;
5277;SDS011;2662;51.194;6.614;2024-03-08T14:27:42;5.90;;;3.57;;
5277;SDS011;2662;51.194;6.614;2024-03-08T14:30:10;9.83;;;4.17;;
5277;SDS011;2662;51.194;6.614;2024-03-08T14:32:37;7.83;;;3.83;;
5277;SDS011;2662;51.194;6.614;2024-03-08T14:35:05;6.70;;;3.90;;
5277;SDS011;2662;51.194;6.614;2024-03-08T14:37:33;7.77;;;3.83;;
5277;SDS011;2662;51.194;6.614;2024-03-08T14:40:00;6.53;;;4.03;;
5277;SDS011;2662;51.194;6.614;2024-03-08T14:42:31;9.30;;;4.80;;
5277;SDS011;2662;51.194;6.614;2024-03-08T14:45:00;8.80;;;4.40;;
5277;SDS011;2662;51.194;6.614;2024-03-08T14:47:27;9.73;;;4.00;;
5277;SDS011;2662;51.194;6.614;2024-03-08T14:49:54;7.70;;;4.17;;
5277;SDS011;2662;51.194;6.614;2024-03-08T14:52:21;7.23;;;4.60;;
5277;SDS011;2662;51.194;6.614;2024-03-08T14:54:54;8.70;;;4.63;;
5277;SDS011;2662;51.194;6.614;2024-03-08T14:57:24;9.77;;;5.03;;
5277;SDS011;2662;51.194;6.614;2024-03-08T14:59:55;9.13;;;4.30;;
5277;SDS011;2662;51.194;6.614;2024-03-08T15:02:21;8.30;;;3.73;;
5277;SDS011;2662;51.194;6.614;2024-03-08T15:04:49;7.20;;;4.20;;
5277;SDS011;2662;51.194;6.614;2024-03-08T15:07:22;12.13;;;4.50;;
5277;SDS011;2662;51.194;6.614;2024-03-08T15:09:49;8.30;;;4.30;;
5277;SDS011;2662;51.194;6.614;2024-03-08T15:12:17;7.17;;;4.47;;
5277;SDS011;2662;51.194;6.614;2024-03-08T15:14:44;12.47;;;4.77;;
5277;SDS011;2662;51.194;6.614;2024-03-08T15:17:17;7.33;;;4.13;;